sensor_id;sensor_type;location;lat;lon;timestamp;P1;durP1;ratioP1;P2;durP2;ratioP2
2452;SDS011;63678;47.994;7.854;2024-01-15T00:00:23;46.50;;;16.25;;
2452;SDS011;63678;47.994;7.854;2024-01-15T00:02:55;40.17;;;16.17;;
2452;SDS011;63678;47.994;7.854;2024-01-15T00:05:28;40.17;;;15.48;;
2452;SDS011;63678;47.994;7.854;2024-01-15T00:08:01;44.47;;;15.73;;
2452;SDS011;63678;47.994;7.854;2024-01-15T00:10:33;46.40;;;15.15;;
2452;SDS011;63678;47.994;7.854;2024-01-15T00:13:05;40.88;;;16.08;;
2452;SDS011;63678;47.994;7.854;2024-01-15T00:15:37;40.87;;;16.00;;
2452;SDS011;63678;47.994;7.854;2024-01-15T00:18:10;41.70;;;15.82;;
2452;SDS011;63678;47.994;7.854;2024-01-15T00:20:42;43.88;;;17.20;;
2452;SDS011;63678;47.994;7.854;2024-01-15T00:23:15;43.92;;;16.50;;
2452;SDS011;63678;47.994;7.854;2024-01-15T00:25:47;48.78;;;18.10;;
2452;SDS011;63678;47.994;7.854;2024-01-15T00:28:19;46.33;;;16.17;;
2452;SDS011;63678;47.994;7.854;2024-01-15T00:30:52;47.35;;;17.05;;
2452;SDS011;63678;47.994;7.854;2024-01-15T00:33:24;43.75;;;17.42;;
2452;SDS011;63678;47.994;7.854;2024-01-15T00:35:57;44.13;;;17.60;;
2452;SDS011;63678;47.994;7.854;2024-01-15T00:38:29;37.88;;;15.50;;
2452;SDS011;63678;47.994;7.854;2024-01-15T00:41:02;47.70;;;16.57;;
2452;SDS011;63678;47.994;7.854;2024-01-15T00:43:35;45.38;;;16.35;;
2452;SDS011;63678;47.994;7.854;2024-01-15T00:46:07;33.97;;;13.65;;
2452;SDS011;63678;47.994;7.854;2024-01-15T00:48:40;52.78;;;18.08;;
2452;SDS011;63678;47.994;7.854;2024-01-15T00:51:12;35.58;;;15.38;;
2452;SDS011;63678;47.994;7.854;2024-01-15T00:53:45;78.27;;;24.80;;
2452;SDS011;63678;47.994;7.854;2024-01-15T00:56:17;65.57;;;19.40;;
2452;SDS011;63678;47.994;7.854;2024-01-15T00:58:49;57.38;;;20.45;;
2452;SDS011;63678;47.994;7.854;2024-01-15T01:01:22;40.20;;;16.10;;
2452;SDS011;63678;47.994;7.854;2024-01-15T01:03:54;43.72;;;16.80;;
2452;SDS011;63678;47.994;7.854;2024-01-15T01:06:27;41.40;;;15.53;;
2452;SDS011;63678;47.994;7.854;2024-01-15T01:09:03;43.75;;;16.05;;
2452;SDS011;63678;47.994;7.854;2024-01-15T01:11:36;44.38;;;16.88;;
2452;SDS011;63678;47.994;7.854;2024-01-15T01:14:08;39.80;;;14.65;;
2452;SDS011;63678;47.994;7.854;2024-01-15T01:16:41;43.42;;;17.23;;
2452;SDS011;63678;47.994;7.854;2024-01-15T01:19:13;42.00;;;14.80;;
2452;SDS011;63678;47.994;7.854;2024-01-15T01:21:46;43.72;;;16.20;;
2452;SDS011;63678;47.994;7.854;2024-01-15T01:24:18;42.75;;;16.08;;
2452;SDS011;63678;47.994;7.854;2024-01-15T01:26:51;43.60;;;16.13;;
2452;SDS011;63678;47.994;7.854;2024-01-15T01:29:24;41.85;;;14.02;;
2452;SDS011;63678;47.994;7.854;2024-01-15T01:31:57;42.33;;;15.50;;
2452;SDS011;63678;47.994;7.854;2024-01-15T01:34:32;38.33;;;15.48;;
2452;SDS011;63678;47.994;7.854;2024-01-15T01:37:14;40.25;;;15.95;;
2452;SDS011;63678;47.994;7.854;2024-01-15T01:39:46;39.03;;;15.80;;
2452;SDS011;63678;47.994;7.854;2024-01-15T01:42:19;47.50;;;15.40;;
2452;SDS011;63678;47.994;7.854;2024-01-15T01:44:51;42.20;;;15.27;;
2452;SDS011;63678;47.994;7.854;2024-01-15T01:47:23;40.47;;;16.08;;
2452;SDS011;63678;47.994;7.854;2024-01-15T01:49:58;41.58;;;16.05;;
2452;SDS011;63678;47.994;7.854;2024-01-15T01:52:31;41.13;;;14.88;;
2452;SDS011;63678;47.994;7.854;2024-01-15T01:55:03;48.50;;;16.30;;
2452;SDS011;63678;47.994;7.854;2024-01-15T01:57:37;43.13;;;15.87;;
2452;SDS011;63678;47.994;7.854;2024-01-15T02:00:10;43.22;;;15.70;;
2452;SDS011;63678;47.994;7.854;2024-01-15T02:02:44;42.78;;;15.40;;
2452;SDS011;63678;47.994;7.854;2024-01-15T02:05:18;45.53;;;15.75;;
2452;SDS011;63678;47.994;7.854;2024-01-15T02:07:52;37.13;;;15.43;;
2452;SDS011;63678;47.994;7.854;2024-01-15T02:10:24;37.70;;;13.87;;
2452;SDS011;63678;47.994;7.854;2024-01-15T02:12:57;36.70;;;13.52;;
2452;SDS011;63678;47.994;7.854;2024-01-15T02:15:29;39.28;;;13.43;;
2452;SDS011;63678;47.994;7.854;2024-01-15T02:18:06;36.35;;;15.60;;
2452;SDS011;63678;47.994;7.854;2024-01-15T02:20:41;41.95;;;15.70;;
2452;SDS011;63678;47.994;7.854;2024-01-15T02:23:15;36.60;;;13.93;;
2452;SDS011;63678;47.994;7.854;2024-01-15T02:25:48;37.30;;;14.55;;
2452;SDS011;63678;47.994;7.854;2024-01-15T02:28:20;43.97;;;15.98;;
2452;SDS011;63678;47.994;7.854;2024-01-15T02:30:53;43.83;;;15.70;;
2452;SDS011;63678;47.994;7.854;2024-01-15T02:33:25;37.63;;;14.25;;
2452;SDS011;63678;47.994;7.854;2024-01-15T02:35:58;35.63;;;15.03;;
2452;SDS011;63678;47.994;7.854;2024-01-15T02:38:30;41.30;;;15.75;;
2452;SDS011;63678;47.994;7.854;2024-01-15T02:41:03;40.97;;;15.70;;
2452;SDS011;63678;47.994;7.854;2024-01-15T02:43:35;39.28;;;16.15;;
2452;SDS011;63678;47.994;7.854;2024-01-15T02:46:08;44.58;;;17.17;;
2452;SDS011;63678;47.994;7.854;2024-01-15T02:48:40;46.53;;;17.70;;
2452;SDS011;63678;47.994;7.854;2024-01-15T02:51:13;46.33;;;17.60;;
2452;SDS011;63678;47.994;7.854;2024-01-15T02:53:45;42.97;;;17.17;;
2452;SDS011;63678;47.994;7.854;2024-01-15T02:56:18;42.70;;;18.20;;
2452;SDS011;63678;47.994;7.854;2024-01-15T02:58:50;48.13;;;17.48;;
2452;SDS011;63678;47.994;7.854;2024-01-15T03:01:22;45.17;;;17.23;;
2452;SDS011;63678;47.994;7.854;2024-01-15T03:03:55;41.13;;;16.75;;
2452;SDS011;63678;47.994;7.854;2024-01-15T03:06:29;47.75;;;18.13;;
2452;SDS011;63678;47.994;7.854;2024-01-15T03:09:01;47.17;;;18.02;;
2452;SDS011;63678;47.994;7.854;2024-01-15T03:11:38;45.13;;;17.65;;
2452;SDS011;63678;47.994;7.854;2024-01-15T03:14:11;39.43;;;16.97;;
2452;SDS011;63678;47.994;7.854;2024-01-15T03:16:43;45.85;;;16.65;;
2452;SDS011;63678;47.994;7.854;2024-01-15T03:19:15;39.20;;;14.55;;
2452;SDS011;63678;47.994;7.854;2024-01-15T03:21:48;46.40;;;16.38;;
2452;SDS011;63678;47.994;7.854;2024-01-15T03:24:20;45.22;;;17.88;;
2452;SDS011;63678;47.994;7.854;2024-01-15T03:26:53;45.70;;;17.13;;
2452;SDS011;63678;47.994;7.854;2024-01-15T03:29:25;43.78;;;16.30;;
2452;SDS011;63678;47.994;7.854;2024-01-15T03:31:58;54.85;;;18.90;;
2452;SDS011;63678;47.994;7.854;2024-01-15T03:34:30;45.42;;;16.15;;
2452;SDS011;63678;47.994;7.854;2024-01-15T03:37:03;44.38;;;17.42;;
2452;SDS011;63678;47.994;7.854;2024-01-15T03:39:35;43.73;;;16.60;;
2452;SDS011;63678;47.994;7.854;2024-01-15T03:42:08;49.35;;;17.75;;
2452;SDS011;63678;47.994;7.854;2024-01-15T03:44:40;42.13;;;16.17;;
2452;SDS011;63678;47.994;7.854;2024-01-15T03:47:12;42.85;;;16.45;;
2452;SDS011;63678;47.994;7.854;2024-01-15T03:49:44;42.17;;;14.57;;
2452;SDS011;63678;47.994;7.854;2024-01-15T03:52:17;46.83;;;16.87;;
2452;SDS011;63678;47.994;7.854;2024-01-15T03:54:49;46.25;;;16.27;;
2452;SDS011;63678;47.994;7.854;2024-01-15T03:57:22;47.47;;;18.17;;
2452;SDS011;63678;47.994;7.854;2024-01-15T03:59:54;53.20;;;19.42;;
2452;SDS011;63678;47.994;7.854;2024-01-15T04:02:26;50.53;;;18.80;;
2452;SDS011;63678;47.994;7.854;2024-01-15T04:04:59;44.53;;;16.93;;
2452;SDS011;63678;47.994;7.854;2024-01-15T04:07:31;48.42;;;17.58;;
2452;SDS011;63678;47.994;7.854;2024-01-15T04:10:03;52.45;;;18.67;;
2452;SDS011;63678;47.994;7.854;2024-01-15T04:12:36;48.42;;;18.33;;
2452;SDS011;63678;47.994;7.854;2024-01-15T04:15:09;47.60;;;17.80;;
2452;SDS011;63678;47.994;7.854;2024-01-15T04:17:41;43.27;;;16.70;;
2452;SDS011;63678;47.994;7.854;2024-01-15T04:20:14;49.92;;;18.45;;
2452;SDS011;63678;47.994;7.854;2024-01-15T04:22:47;50.25;;;17.77;;
2452;SDS011;63678;47.994;7.854;2024-01-15T04:25:19;51.38;;;17.13;;
2452;SDS011;63678;47.994;7.854;2024-01-15T04:27:51;47.80;;;18.00;;
2452;SDS011;63678;47.994;7.854;2024-01-15T04:30:24;50.43;;;18.40;;
2452;SDS011;63678;47.994;7.854;2024-01-15T04:32:56;51.35;;;18.85;;
2452;SDS011;63678;47.994;7.854;2024-01-15T04:35:30;46.72;;;18.88;;
2452;SDS011;63678;47.994;7.854;2024-01-15T04:38:02;49.42;;;18.25;;
2452;SDS011;63678;47.994;7.854;2024-01-15T04:40:35;48.88;;;18.95;;
2452;SDS011;63678;47.994;7.854;2024-01-15T04:43:07;48.07;;;17.50;;
2452;SDS011;63678;47.994;7.854;2024-01-15T04:45:39;46.13;;;17.20;;
2452;SDS011;63678;47.994;7.854;2024-01-15T04:48:12;46.20;;;17.95;;
2452;SDS011;63678;47.994;7.854;2024-01-15T04:50:44;46.22;;;17.88;;
2452;SDS011;63678;47.994;7.854;2024-01-15T04:53:17;50.10;;;18.67;;
2452;SDS011;63678;47.994;7.854;2024-01-15T04:55:50;53.93;;;18.20;;
2452;SDS011;63678;47.994;7.854;2024-01-15T04:58:22;53.47;;;20.08;;
2452;SDS011;63678;47.994;7.854;2024-01-15T05:00:57;48.35;;;18.23;;
2452;SDS011;63678;47.994;7.854;2024-01-15T05:03:29;56.38;;;19.17;;
2452;SDS011;63678;47.994;7.854;2024-01-15T05:06:02;52.22;;;19.30;;
2452;SDS011;63678;47.994;7.854;2024-01-15T05:08:35;50.43;;;17.80;;
2452;SDS011;63678;47.994;7.854;2024-01-15T05:11:07;52.05;;;18.88;;
2452;SDS011;63678;47.994;7.854;2024-01-15T05:13:40;49.97;;;18.60;;
2452;SDS011;63678;47.994;7.854;2024-01-15T05:16:12;49.45;;;17.85;;
2452;SDS011;63678;47.994;7.854;2024-01-15T05:18:44;53.40;;;19.60;;
2452;SDS011;63678;47.994;7.854;2024-01-15T05:21:17;46.13;;;18.60;;
2452;SDS011;63678;47.994;7.854;2024-01-15T05:23:49;48.17;;;19.08;;
2452;SDS011;63678;47.994;7.854;2024-01-15T05:26:22;54.75;;;19.45;;
2452;SDS011;63678;47.994;7.854;2024-01-15T05:28:54;49.75;;;18.92;;
2452;SDS011;63678;47.994;7.854;2024-01-15T05:31:26;51.55;;;19.27;;
2452;SDS011;63678;47.994;7.854;2024-01-15T05:33:59;57.47;;;19.20;;
2452;SDS011;63678;47.994;7.854;2024-01-15T05:36:31;54.10;;;19.92;;
2452;SDS011;63678;47.994;7.854;2024-01-15T05:39:03;50.03;;;17.95;;
2452;SDS011;63678;47.994;7.854;2024-01-15T05:41:36;53.42;;;19.00;;
2452;SDS011;63678;47.994;7.854;2024-01-15T05:44:08;45.30;;;17.35;;
2452;SDS011;63678;47.994;7.854;2024-01-15T05:46:41;45.93;;;17.40;;
2452;SDS011;63678;47.994;7.854;2024-01-15T05:49:13;47.58;;;17.85;;
2452;SDS011;63678;47.994;7.854;2024-01-15T05:51:46;43.92;;;16.80;;
2452;SDS011;63678;47.994;7.854;2024-01-15T05:54:19;43.38;;;16.67;;
2452;SDS011;63678;47.994;7.854;2024-01-15T05:56:51;49.45;;;17.60;;
2452;SDS011;63678;47.994;7.854;2024-01-15T05:59:24;50.57;;;18.03;;
2452;SDS011;63678;47.994;7.854;2024-01-15T06:01:57;44.88;;;15.60;;
2452;SDS011;63678;47.994;7.854;2024-01-15T06:04:29;44.20;;;15.18;;
2452;SDS011;63678;47.994;7.854;2024-01-15T06:07:02;43.30;;;14.55;;
2452;SDS011;63678;47.994;7.854;2024-01-15T06:09:34;45.45;;;15.32;;
2452;SDS011;63678;47.994;7.854;2024-01-15T06:12:07;40.87;;;14.27;;
2452;SDS011;63678;47.994;7.854;2024-01-15T06:14:40;46.40;;;16.52;;
2452;SDS011;63678;47.994;7.854;2024-01-15T06:17:13;46.50;;;15.02;;
2452;SDS011;63678;47.994;7.854;2024-01-15T06:19:45;45.17;;;15.98;;
2452;SDS011;63678;47.994;7.854;2024-01-15T06:22:18;41.25;;;15.60;;
2452;SDS011;63678;47.994;7.854;2024-01-15T06:24:50;42.80;;;14.80;;
2452;SDS011;63678;47.994;7.854;2024-01-15T06:27:23;39.40;;;14.65;;
2452;SDS011;63678;47.994;7.854;2024-01-15T06:29:55;36.88;;;14.15;;
2452;SDS011;63678;47.994;7.854;2024-01-15T06:32:28;44.33;;;14.82;;
2452;SDS011;63678;47.994;7.854;2024-01-15T06:35:00;38.40;;;14.10;;
2452;SDS011;63678;47.994;7.854;2024-01-15T06:37:33;37.03;;;13.10;;
2452;SDS011;63678;47.994;7.854;2024-01-15T06:40:05;39.75;;;15.15;;
2452;SDS011;63678;47.994;7.854;2024-01-15T06:42:38;39.25;;;15.90;;
2452;SDS011;63678;47.994;7.854;2024-01-15T06:45:11;43.55;;;15.63;;
2452;SDS011;63678;47.994;7.854;2024-01-15T06:47:43;39.72;;;15.32;;
2452;SDS011;63678;47.994;7.854;2024-01-15T06:50:15;40.77;;;14.10;;
2452;SDS011;63678;47.994;7.854;2024-01-15T06:52:47;37.00;;;13.38;;
2452;SDS011;63678;47.994;7.854;2024-01-15T06:55:19;36.67;;;13.82;;
2452;SDS011;63678;47.994;7.854;2024-01-15T06:57:52;33.20;;;12.98;;
2452;SDS011;63678;47.994;7.854;2024-01-15T07:00:25;32.70;;;12.48;;
2452;SDS011;63678;47.994;7.854;2024-01-15T07:02:57;34.60;;;11.77;;
2452;SDS011;63678;47.994;7.854;2024-01-15T07:05:29;31.92;;;11.30;;
2452;SDS011;63678;47.994;7.854;2024-01-15T07:08:03;29.75;;;10.52;;
2452;SDS011;63678;47.994;7.854;2024-01-15T07:10:36;24.52;;;10.07;;
2452;SDS011;63678;47.994;7.854;2024-01-15T07:13:08;26.52;;;9.93;;
2452;SDS011;63678;47.994;7.854;2024-01-15T07:15:41;21.10;;;7.93;;
2452;SDS011;63678;47.994;7.854;2024-01-15T07:18:13;25.85;;;8.98;;
2452;SDS011;63678;47.994;7.854;2024-01-15T07:20:45;31.50;;;12.40;;
2452;SDS011;63678;47.994;7.854;2024-01-15T07:23:18;36.10;;;11.88;;
2452;SDS011;63678;47.994;7.854;2024-01-15T07:25:50;33.35;;;11.25;;
2452;SDS011;63678;47.994;7.854;2024-01-15T07:28:23;32.70;;;12.87;;
2452;SDS011;63678;47.994;7.854;2024-01-15T07:30:55;33.95;;;12.07;;
2452;SDS011;63678;47.994;7.854;2024-01-15T07:33:28;36.58;;;14.43;;
2452;SDS011;63678;47.994;7.854;2024-01-15T07:36:00;35.25;;;13.32;;
2452;SDS011;63678;47.994;7.854;2024-01-15T07:38:34;36.97;;;13.27;;
2452;SDS011;63678;47.994;7.854;2024-01-15T07:41:06;31.00;;;11.83;;
2452;SDS011;63678;47.994;7.854;2024-01-15T07:43:39;33.17;;;12.05;;
2452;SDS011;63678;47.994;7.854;2024-01-15T07:46:12;15.70;;;6.80;;
2452;SDS011;63678;47.994;7.854;2024-01-15T07:48:44;16.45;;;7.55;;
2452;SDS011;63678;47.994;7.854;2024-01-15T07:51:17;26.27;;;9.15;;
2452;SDS011;63678;47.994;7.854;2024-01-15T07:53:49;25.60;;;10.00;;
2452;SDS011;63678;47.994;7.854;2024-01-15T07:56:23;26.02;;;10.43;;
2452;SDS011;63678;47.994;7.854;2024-01-15T07:58:56;22.38;;;9.45;;
2452;SDS011;63678;47.994;7.854;2024-01-15T08:01:28;24.70;;;9.20;;
2452;SDS011;63678;47.994;7.854;2024-01-15T08:04:00;12.52;;;5.57;;
2452;SDS011;63678;47.994;7.854;2024-01-15T08:06:33;19.60;;;5.93;;
2452;SDS011;63678;47.994;7.854;2024-01-15T08:09:05;14.77;;;6.25;;
2452;SDS011;63678;47.994;7.854;2024-01-15T08:11:39;16.23;;;6.55;;
2452;SDS011;63678;47.994;7.854;2024-01-15T08:14:13;11.43;;;5.07;;
2452;SDS011;63678;47.994;7.854;2024-01-15T08:16:45;15.13;;;5.15;;
2452;SDS011;63678;47.994;7.854;2024-01-15T08:19:17;10.50;;;4.47;;
2452;SDS011;63678;47.994;7.854;2024-01-15T08:21:51;11.02;;;4.70;;
2452;SDS011;63678;47.994;7.854;2024-01-15T08:24:24;14.20;;;5.43;;
2452;SDS011;63678;47.994;7.854;2024-01-15T08:26:57;12.65;;;5.72;;
2452;SDS011;63678;47.994;7.854;2024-01-15T08:29:29;14.18;;;5.30;;
2452;SDS011;63678;47.994;7.854;2024-01-15T08:32:04;13.30;;;5.03;;
2452;SDS011;63678;47.994;7.854;2024-01-15T08:34:37;9.45;;;4.40;;
2452;SDS011;63678;47.994;7.854;2024-01-15T08:37:09;17.10;;;6.82;;
2452;SDS011;63678;47.994;7.854;2024-01-15T08:39:42;12.15;;;4.70;;
2452;SDS011;63678;47.994;7.854;2024-01-15T08:42:14;8.88;;;3.92;;
2452;SDS011;63678;47.994;7.854;2024-01-15T08:44:47;9.50;;;4.37;;
2452;SDS011;63678;47.994;7.854;2024-01-15T08:47:19;8.68;;;4.20;;
2452;SDS011;63678;47.994;7.854;2024-01-15T08:49:51;10.68;;;4.28;;
2452;SDS011;63678;47.994;7.854;2024-01-15T08:52:24;11.75;;;4.65;;
2452;SDS011;63678;47.994;7.854;2024-01-15T08:54:56;10.48;;;4.45;;
2452;SDS011;63678;47.994;7.854;2024-01-15T08:57:29;8.53;;;4.30;;
2452;SDS011;63678;47.994;7.854;2024-01-15T09:00:01;8.18;;;4.40;;
2452;SDS011;63678;47.994;7.854;2024-01-15T09:02:35;9.20;;;3.25;;
2452;SDS011;63678;47.994;7.854;2024-01-15T09:05:08;9.88;;;4.43;;
2452;SDS011;63678;47.994;7.854;2024-01-15T09:07:40;9.18;;;5.28;;
2452;SDS011;63678;47.994;7.854;2024-01-15T09:10:13;7.83;;;3.87;;
2452;SDS011;63678;47.994;7.854;2024-01-15T09:12:46;10.38;;;4.30;;
2452;SDS011;63678;47.994;7.854;2024-01-15T09:15:18;9.40;;;4.13;;
2452;SDS011;63678;47.994;7.854;2024-01-15T09:17:51;9.18;;;4.07;;
2452;SDS011;63678;47.994;7.854;2024-01-15T09:20:25;8.35;;;4.00;;
2452;SDS011;63678;47.994;7.854;2024-01-15T09:22:59;8.10;;;3.87;;
2452;SDS011;63678;47.994;7.854;2024-01-15T09:25:31;7.95;;;3.80;;
2452;SDS011;63678;47.994;7.854;2024-01-15T09:28:03;9.95;;;4.30;;
2452;SDS011;63678;47.994;7.854;2024-01-15T09:30:36;9.70;;;3.90;;
2452;SDS011;63678;47.994;7.854;2024-01-15T09:33:09;9.63;;;4.05;;
2452;SDS011;63678;47.994;7.854;2024-01-15T09:35:42;8.90;;;4.23;;
2452;SDS011;63678;47.994;7.854;2024-01-15T09:38:17;7.93;;;3.85;;
2452;SDS011;63678;47.994;7.854;2024-01-15T09:40:51;9.93;;;4.43;;
2452;SDS011;63678;47.994;7.854;2024-01-15T09:43:24;11.65;;;4.30;;
2452;SDS011;63678;47.994;7.854;2024-01-15T09:45:56;8.52;;;4.45;;
2452;SDS011;63678;47.994;7.854;2024-01-15T09:48:29;8.57;;;3.60;;
2452;SDS011;63678;47.994;7.854;2024-01-15T09:51:02;14.48;;;5.30;;
2452;SDS011;63678;47.994;7.854;2024-01-15T09:53:35;14.13;;;5.95;;
2452;SDS011;63678;47.994;7.854;2024-01-15T09:56:10;11.70;;;5.45;;
2452;SDS011;63678;47.994;7.854;2024-01-15T09:58:42;13.80;;;4.93;;
2452;SDS011;63678;47.994;7.854;2024-01-15T10:01:15;14.87;;;5.17;;
2452;SDS011;63678;47.994;7.854;2024-01-15T10:03:49;12.50;;;5.38;;
2452;SDS011;63678;47.994;7.854;2024-01-15T10:06:22;11.95;;;5.22;;
2452;SDS011;63678;47.994;7.854;2024-01-15T10:08:56;12.70;;;5.40;;
2452;SDS011;63678;47.994;7.854;2024-01-15T10:11:32;14.40;;;5.13;;
2452;SDS011;63678;47.994;7.854;2024-01-15T10:14:04;16.80;;;5.97;;
2452;SDS011;63678;47.994;7.854;2024-01-15T10:16:37;15.52;;;6.20;;
2452;SDS011;63678;47.994;7.854;2024-01-15T10:19:13;14.57;;;6.00;;
2452;SDS011;63678;47.994;7.854;2024-01-15T10:21:46;15.55;;;6.10;;
2452;SDS011;63678;47.994;7.854;2024-01-15T10:24:18;15.30;;;6.05;;
2452;SDS011;63678;47.994;7.854;2024-01-15T10:26:51;13.57;;;6.23;;
2452;SDS011;63678;47.994;7.854;2024-01-15T10:29:24;16.17;;;6.53;;
2452;SDS011;63678;47.994;7.854;2024-01-15T10:31:56;16.70;;;6.72;;
2452;SDS011;63678;47.994;7.854;2024-01-15T10:34:30;15.65;;;6.90;;
2452;SDS011;63678;47.994;7.854;2024-01-15T10:37:03;16.08;;;6.70;;
2452;SDS011;63678;47.994;7.854;2024-01-15T10:39:35;21.73;;;6.80;;
2452;SDS011;63678;47.994;7.854;2024-01-15T10:42:09;19.65;;;7.68;;
2452;SDS011;63678;47.994;7.854;2024-01-15T10:44:42;22.38;;;8.23;;
2452;SDS011;63678;47.994;7.854;2024-01-15T10:47:15;22.13;;;9.00;;
2452;SDS011;63678;47.994;7.854;2024-01-15T10:49:48;20.13;;;9.13;;
2452;SDS011;63678;47.994;7.854;2024-01-15T10:52:21;25.67;;;8.87;;
2452;SDS011;63678;47.994;7.854;2024-01-15T10:55:01;23.25;;;7.88;;
2452;SDS011;63678;47.994;7.854;2024-01-15T10:57:45;22.88;;;8.63;;
2452;SDS011;63678;47.994;7.854;2024-01-15T11:00:24;26.33;;;9.05;;
2452;SDS011;63678;47.994;7.854;2024-01-15T11:02:57;19.98;;;8.70;;
2452;SDS011;63678;47.994;7.854;2024-01-15T11:05:33;19.17;;;8.73;;
2452;SDS011;63678;47.994;7.854;2024-01-15T11:08:12;25.60;;;9.57;;
2452;SDS011;63678;47.994;7.854;2024-01-15T11:10:51;22.42;;;9.75;;
2452;SDS011;63678;47.994;7.854;2024-01-15T11:16:06;24.05;;;9.05;;
2452;SDS011;63678;47.994;7.854;2024-01-15T11:19:00;21.50;;;8.47;;
2452;SDS011;63678;47.994;7.854;2024-01-15T11:21:35;23.48;;;9.43;;
2452;SDS011;63678;47.994;7.854;2024-01-15T11:27:12;24.75;;;10.15;;
2452;SDS011;63678;47.994;7.854;2024-01-15T11:29:55;23.70;;;10.00;;
2452;SDS011;63678;47.994;7.854;2024-01-15T11:34:02;23.63;;;9.53;;
2452;SDS011;63678;47.994;7.854;2024-01-15T11:42:01;22.95;;;9.73;;
2452;SDS011;63678;47.994;7.854;2024-01-15T11:44:35;27.05;;;10.95;;
2452;SDS011;63678;47.994;7.854;2024-01-15T11:47:10;23.67;;;8.83;;
2452;SDS011;63678;47.994;7.854;2024-01-15T11:50:02;26.02;;;10.32;;
2452;SDS011;63678;47.994;7.854;2024-01-15T11:52:40;25.77;;;10.18;;
2452;SDS011;63678;47.994;7.854;2024-01-15T11:55:35;20.85;;;9.80;;
2452;SDS011;63678;47.994;7.854;2024-01-15T11:58:11;23.42;;;9.98;;
2452;SDS011;63678;47.994;7.854;2024-01-15T12:00:47;24.37;;;10.57;;
2452;SDS011;63678;47.994;7.854;2024-01-15T12:03:23;22.33;;;10.73;;
2452;SDS011;63678;47.994;7.854;2024-01-15T12:05:56;22.50;;;8.65;;
2452;SDS011;63678;47.994;7.854;2024-01-15T12:08:31;22.73;;;10.57;;
2452;SDS011;63678;47.994;7.854;2024-01-15T12:11:09;23.65;;;11.02;;
2452;SDS011;63678;47.994;7.854;2024-01-15T12:13:45;20.33;;;9.13;;
2452;SDS011;63678;47.994;7.854;2024-01-15T12:16:20;24.38;;;9.50;;
2452;SDS011;63678;47.994;7.854;2024-01-15T12:18:53;23.58;;;9.95;;
2452;SDS011;63678;47.994;7.854;2024-01-15T12:21:26;25.35;;;10.32;;
2452;SDS011;63678;47.994;7.854;2024-01-15T12:23:58;28.33;;;11.55;;
2452;SDS011;63678;47.994;7.854;2024-01-15T12:26:31;21.83;;;10.20;;
2452;SDS011;63678;47.994;7.854;2024-01-15T12:29:06;21.60;;;9.38;;
2452;SDS011;63678;47.994;7.854;2024-01-15T12:31:39;25.20;;;10.98;;
2452;SDS011;63678;47.994;7.854;2024-01-15T12:34:12;22.40;;;9.25;;
2452;SDS011;63678;47.994;7.854;2024-01-15T12:36:46;23.95;;;10.50;;
2452;SDS011;63678;47.994;7.854;2024-01-15T12:39:20;20.90;;;9.23;;
2452;SDS011;63678;47.994;7.854;2024-01-15T12:41:55;21.65;;;9.40;;
2452;SDS011;63678;47.994;7.854;2024-01-15T12:44:28;22.00;;;8.95;;
2452;SDS011;63678;47.994;7.854;2024-01-15T12:47:01;21.98;;;9.23;;
2452;SDS011;63678;47.994;7.854;2024-01-15T12:49:35;28.15;;;8.60;;
2452;SDS011;63678;47.994;7.854;2024-01-15T12:52:12;26.90;;;8.63;;
2452;SDS011;63678;47.994;7.854;2024-01-15T12:54:46;25.63;;;9.77;;
2452;SDS011;63678;47.994;7.854;2024-01-15T12:57:19;23.00;;;8.48;;
2452;SDS011;63678;47.994;7.854;2024-01-15T12:59:54;20.90;;;8.45;;
2452;SDS011;63678;47.994;7.854;2024-01-15T13:02:26;20.48;;;8.90;;
2452;SDS011;63678;47.994;7.854;2024-01-15T13:04:59;23.77;;;8.90;;
2452;SDS011;63678;47.994;7.854;2024-01-15T13:07:32;23.67;;;8.85;;
2452;SDS011;63678;47.994;7.854;2024-01-15T13:10:05;23.65;;;8.43;;
2452;SDS011;63678;47.994;7.854;2024-01-15T13:12:38;19.60;;;8.95;;
2452;SDS011;63678;47.994;7.854;2024-01-15T13:15:11;22.75;;;9.57;;
2452;SDS011;63678;47.994;7.854;2024-01-15T13:17:46;20.53;;;9.30;;
2452;SDS011;63678;47.994;7.854;2024-01-15T13:20:18;26.13;;;9.27;;
2452;SDS011;63678;47.994;7.854;2024-01-15T13:22:50;21.50;;;9.20;;
2452;SDS011;63678;47.994;7.854;2024-01-15T13:25:23;22.20;;;9.68;;
2452;SDS011;63678;47.994;7.854;2024-01-15T13:27:56;25.05;;;10.30;;
2452;SDS011;63678;47.994;7.854;2024-01-15T13:30:28;22.50;;;10.50;;
2452;SDS011;63678;47.994;7.854;2024-01-15T13:33:01;24.05;;;9.60;;
2452;SDS011;63678;47.994;7.854;2024-01-15T13:35:36;23.05;;;9.23;;
2452;SDS011;63678;47.994;7.854;2024-01-15T13:38:09;24.05;;;10.43;;
2452;SDS011;63678;47.994;7.854;2024-01-15T13:40:42;24.30;;;10.60;;
2452;SDS011;63678;47.994;7.854;2024-01-15T13:43:16;27.13;;;10.03;;
2452;SDS011;63678;47.994;7.854;2024-01-15T13:45:50;25.92;;;10.18;;
2452;SDS011;63678;47.994;7.854;2024-01-15T13:48:22;21.52;;;9.50;;
2452;SDS011;63678;47.994;7.854;2024-01-15T13:50:54;25.05;;;10.57;;
2452;SDS011;63678;47.994;7.854;2024-01-15T13:53:27;27.92;;;11.57;;
2452;SDS011;63678;47.994;7.854;2024-01-15T13:55:59;30.60;;;11.40;;
2452;SDS011;63678;47.994;7.854;2024-01-15T13:58:32;19.48;;;8.82;;
2452;SDS011;63678;47.994;7.854;2024-01-15T14:01:04;24.15;;;10.98;;
2452;SDS011;63678;47.994;7.854;2024-01-15T14:03:37;22.17;;;9.20;;
2452;SDS011;63678;47.994;7.854;2024-01-15T14:06:10;24.83;;;9.95;;
2452;SDS011;63678;47.994;7.854;2024-01-15T14:08:42;25.27;;;10.20;;
2452;SDS011;63678;47.994;7.854;2024-01-15T14:11:14;26.27;;;10.57;;
2452;SDS011;63678;47.994;7.854;2024-01-15T14:13:47;24.38;;;10.02;;
2452;SDS011;63678;47.994;7.854;2024-01-15T14:16:21;25.17;;;10.40;;
2452;SDS011;63678;47.994;7.854;2024-01-15T14:18:56;25.48;;;11.13;;
2452;SDS011;63678;47.994;7.854;2024-01-15T14:21:29;27.13;;;10.37;;
2452;SDS011;63678;47.994;7.854;2024-01-15T14:24:01;26.70;;;10.77;;
2452;SDS011;63678;47.994;7.854;2024-01-15T14:26:37;25.63;;;10.95;;
2452;SDS011;63678;47.994;7.854;2024-01-15T14:29:09;29.05;;;11.38;;
2452;SDS011;63678;47.994;7.854;2024-01-15T14:31:41;28.08;;;11.40;;
2452;SDS011;63678;47.994;7.854;2024-01-15T14:34:14;21.83;;;10.33;;
2452;SDS011;63678;47.994;7.854;2024-01-15T14:36:47;33.80;;;10.75;;
2452;SDS011;63678;47.994;7.854;2024-01-15T14:39:21;24.40;;;10.48;;
2452;SDS011;63678;47.994;7.854;2024-01-15T14:41:54;29.38;;;11.50;;
2452;SDS011;63678;47.994;7.854;2024-01-15T14:44:26;21.40;;;9.82;;
2452;SDS011;63678;47.994;7.854;2024-01-15T14:47:00;24.47;;;9.93;;
2452;SDS011;63678;47.994;7.854;2024-01-15T14:49:32;27.23;;;11.23;;
2452;SDS011;63678;47.994;7.854;2024-01-15T14:52:05;22.02;;;10.75;;
2452;SDS011;63678;47.994;7.854;2024-01-15T14:54:38;23.30;;;10.23;;
2452;SDS011;63678;47.994;7.854;2024-01-15T14:57:11;29.13;;;12.50;;
2452;SDS011;63678;47.994;7.854;2024-01-15T14:59:43;28.37;;;11.37;;
2452;SDS011;63678;47.994;7.854;2024-01-15T15:02:15;26.92;;;11.38;;
2452;SDS011;63678;47.994;7.854;2024-01-15T15:04:49;26.20;;;11.40;;
2452;SDS011;63678;47.994;7.854;2024-01-15T15:07:22;32.58;;;12.32;;
2452;SDS011;63678;47.994;7.854;2024-01-15T15:12:54;27.00;;;10.13;;
2452;SDS011;63678;47.994;7.854;2024-01-15T15:15:26;27.55;;;12.05;;
2452;SDS011;63678;47.994;7.854;2024-01-15T15:17:58;27.88;;;10.20;;
2452;SDS011;63678;47.994;7.854;2024-01-15T15:20:31;26.33;;;11.38;;
2452;SDS011;63678;47.994;7.854;2024-01-15T15:23:04;30.25;;;12.68;;
2452;SDS011;63678;47.994;7.854;2024-01-15T15:25:39;29.90;;;12.63;;
2452;SDS011;63678;47.994;7.854;2024-01-15T15:28:14;31.27;;;12.95;;
2452;SDS011;63678;47.994;7.854;2024-01-15T15:30:47;25.60;;;10.93;;